createdAt,value
2018-06-27T00:00:43.483Z,77.10
2018-06-27T00:01:43.449Z,77.10
2018-06-27T00:02:43.438Z,76.90
2018-06-27T00:03:43.440Z,77.00
2018-06-27T00:04:43.415Z,76.79
2018-06-27T00:05:43.405Z,77.34
2018-06-27T00:06:43.398Z,78.05
2018-06-27T00:07:43.384Z,78.08
2018-06-27T00:08:43.385Z,79.30
2018-06-27T00:09:43.361Z,78.79
2018-06-27T00:10:43.350Z,79.10
2018-06-27T00:11:43.372Z,78.89
2018-06-27T00:12:43.335Z,78.89
2018-06-27T00:13:43.338Z,78.69
2018-06-27T00:14:43.306Z,79.30
2018-06-27T00:15:43.295Z,78.45
2018-06-27T00:16:43.285Z,78.66
2018-06-27T00:17:43.273Z,77.54
2018-06-27T00:18:43.281Z,77.54
2018-06-27T00:19:43.254Z,77.95
2018-06-27T00:20:43.247Z,77.84
2018-06-27T00:21:43.232Z,77.54
2018-06-27T00:22:43.219Z,77.34
2018-06-27T00:23:43.208Z,78.05
2018-06-27T00:24:43.213Z,77.14
2018-06-27T00:25:43.186Z,77.44
2018-06-27T00:26:43.177Z,77.68
2018-06-27T00:27:43.167Z,77.75
2018-06-27T00:28:43.154Z,78.08
2018-06-27T00:29:43.160Z,77.68
2018-06-27T00:30:43.179Z,77.64
2018-06-27T00:31:43.120Z,77.54
2018-06-27T00:32:43.109Z,77.68
2018-06-27T00:33:43.099Z,77.95
2018-06-27T00:34:43.111Z,77.44
2018-06-27T00:35:44.346Z,77.14
2018-06-27T00:36:43.066Z,77.48
2018-06-27T00:37:43.057Z,76.93
2018-06-27T00:38:43.044Z,77.84
2018-06-27T00:39:43.035Z,77.88
2018-06-27T00:40:43.040Z,77.78
2018-06-27T00:41:43.014Z,77.58
2018-06-27T00:42:43.003Z,77.98
2018-06-27T00:43:42.995Z,77.68
2018-06-27T00:44:42.981Z,77.68
2018-06-27T00:45:42.983Z,77.78
2018-06-27T00:46:42.959Z,77.68
2018-06-27T00:47:42.954Z,77.82
2018-06-27T00:48:42.936Z,78.42
2018-06-27T00:49:42.926Z,78.22
2018-06-27T00:50:42.934Z,78.53
2018-06-27T00:51:42.907Z,78.33
2018-06-27T00:52:42.894Z,79.34
2018-06-27T00:53:42.881Z,78.53
2018-06-27T00:54:42.873Z,78.73
2018-06-27T00:55:42.860Z,78.12
2018-06-27T00:56:42.863Z,78.73
2018-06-27T00:57:42.840Z,78.33
2018-06-27T00:58:42.829Z,78.33
2018-06-27T00:59:42.817Z,78.12
2018-06-27T01:00:42.805Z,77.72
2018-06-27T01:01:42.818Z,78.02
2018-06-27T01:02:42.800Z,78.33
2018-06-27T01:03:42.772Z,78.63
2018-06-27T01:04:42.761Z,78.22
2018-06-27T01:05:42.751Z,78.63
2018-06-27T01:06:42.741Z,78.63
2018-06-27T01:07:42.745Z,78.33
2018-06-27T01:08:42.719Z,77.92
2018-06-27T01:09:42.708Z,77.92
2018-06-27T01:10:42.758Z,77.86
2018-06-27T01:11:42.692Z,77.92
2018-06-27T01:12:42.691Z,77.92
2018-06-27T01:13:42.667Z,78.06
2018-06-27T01:14:42.659Z,78.77
2018-06-27T01:15:42.646Z,78.77
2018-06-27T01:16:42.638Z,78.77
2018-06-27T01:17:42.647Z,78.06
2018-06-27T01:18:42.616Z,78.56
2018-06-27T01:19:42.602Z,78.66
2018-06-27T01:20:42.594Z,78.97
2018-06-27T01:21:42.588Z,78.56
2018-06-27T01:22:42.572Z,78.56
2018-06-27T01:23:42.575Z,78.06
2018-06-27T01:24:42.551Z,78.46
2018-06-27T01:25:42.537Z,78.66
2018-06-27T01:26:42.533Z,79.17
2018-06-27T01:27:42.518Z,79.07
2018-06-27T01:28:42.527Z,78.87
2018-06-27T01:29:42.497Z,78.26
2018-06-27T01:30:42.486Z,78.36
2018-06-27T01:31:42.473Z,79.27
2018-06-27T01:32:42.463Z,78.16
2018-06-27T01:33:42.472Z,78.36
2018-06-27T01:34:42.443Z,78.56
2018-06-27T01:35:42.450Z,79.47
2018-06-27T01:36:42.421Z,78.06
2018-06-27T01:37:42.416Z,78.91
2018-06-27T01:38:42.413Z,78.87
2018-06-27T01:42:00.197Z,79.72
2018-06-27T01:43:00.188Z,79.47
2018-06-27T01:44:00.189Z,79.17
2018-06-27T01:45:00.183Z,79.27
2018-06-27T01:46:00.152Z,79.41
2018-06-27T01:47:00.142Z,79.72
2018-06-27T01:48:00.132Z,79.00
2018-06-27T01:49:00.122Z,79.07
2018-06-27T01:50:00.124Z,79.38
2018-06-27T01:51:00.099Z,79.68
2018-06-27T01:52:00.091Z,79.92
2018-06-27T01:53:00.078Z,79.58
2018-06-27T01:54:00.069Z,79.61
2018-06-27T01:55:00.086Z,79.47
2018-06-27T01:56:00.047Z,79.72
2018-06-27T01:57:00.035Z,79.51
2018-06-27T01:58:00.027Z,79.41
2018-06-27T01:59:00.014Z,79.72
2018-06-27T02:00:00.018Z,78.91
2018-06-27T02:00:59.990Z,79.11
2018-06-27T02:01:59.980Z,78.91
2018-06-27T02:02:59.966Z,79.00
2018-06-27T02:03:59.954Z,79.51
2018-06-27T02:04:59.957Z,79.00
2018-06-27T02:05:59.934Z,79.41
2018-06-27T02:06:59.922Z,79.41
2018-06-27T02:07:59.912Z,79.31
2018-06-27T02:08:59.900Z,79.72
2018-06-27T02:09:59.908Z,79.51
2018-06-27T02:10:59.876Z,79.31
2018-06-27T02:11:59.881Z,78.91
2018-06-27T02:12:59.859Z,78.80
2018-06-27T02:13:59.852Z,79.04
2018-06-27T02:14:59.833Z,78.94
2018-06-27T02:15:59.840Z,79.04
2018-06-27T02:16:59.809Z,78.94
2018-06-27T02:17:59.798Z,79.45
2018-06-27T02:18:59.787Z,79.14
2018-06-27T02:19:59.777Z,79.65
2018-06-27T02:20:59.802Z,79.55
2018-06-27T02:21:59.757Z,79.35
2018-06-27T02:22:59.742Z,79.96
2018-06-27T02:23:59.732Z,79.85
2018-06-27T02:24:59.760Z,79.72
2018-06-27T02:25:59.712Z,79.85
2018-06-27T02:26:59.717Z,80.46
2018-06-27T02:27:59.689Z,80.87
2018-06-27T02:28:59.676Z,79.65
2018-06-27T02:29:59.664Z,79.85
2018-06-27T02:30:59.659Z,79.75
2018-06-27T02:31:59.658Z,80.87
2018-06-27T02:32:59.633Z,79.96
2018-06-27T02:33:59.620Z,80.06
2018-06-27T02:34:59.611Z,79.75
2018-06-27T02:35:59.598Z,79.55
2018-06-27T02:36:59.607Z,79.85
2018-06-27T02:37:59.576Z,79.75
2018-06-27T02:38:59.577Z,79.96
2018-06-27T02:39:59.554Z,80.16
2018-06-27T02:40:59.544Z,80.77
2018-06-27T02:41:59.532Z,80.87
2018-06-27T02:42:59.533Z,80.50
2018-06-27T02:43:59.510Z,80.71
2018-06-27T02:44:59.498Z,80.77
2018-06-27T02:45:59.488Z,80.91
2018-06-27T02:46:59.474Z,80.16
2018-06-27T02:47:59.479Z,80.36
2018-06-27T02:48:59.456Z,80.57
2018-06-27T02:49:59.443Z,80.16
2018-06-27T02:50:59.433Z,80.71
2018-06-27T02:51:59.421Z,80.80
2018-06-27T02:52:59.446Z,80.40
2018-06-27T02:53:59.397Z,80.80
2018-06-27T02:54:59.387Z,80.71
2018-06-27T02:55:59.374Z,80.40
2018-06-27T02:56:59.378Z,80.50
2018-06-27T02:57:59.352Z,80.40
2018-06-27T02:58:59.354Z,80.50
2018-06-27T02:59:59.330Z,80.60
2018-06-27T03:00:59.318Z,80.50
2018-06-27T03:01:59.309Z,80.80
2018-06-27T03:02:59.298Z,81.11
2018-06-27T03:03:59.305Z,80.60
2018-06-27T03:04:59.275Z,81.11
2018-06-27T03:05:59.265Z,81.01
2018-06-27T03:06:59.263Z,81.21
2018-06-27T03:07:59.241Z,81.01
2018-06-27T03:08:59.244Z,82.33
2018-06-27T03:09:59.218Z,82.23
2018-06-27T03:10:59.208Z,81.52
2018-06-27T03:11:59.198Z,82.23
2018-06-27T03:12:59.187Z,81.96
2018-06-27T03:13:59.194Z,81.82
2018-06-27T03:14:59.165Z,82.43
2018-06-27T03:15:59.230Z,82.57
2018-06-27T03:16:59.143Z,82.47
2018-06-27T03:17:59.134Z,82.57
2018-06-27T03:18:59.121Z,82.98
2018-06-27T03:19:59.122Z,82.47
2018-06-27T03:20:59.097Z,82.57
2018-06-27T03:21:59.085Z,82.98
2018-06-27T03:22:59.075Z,83.08
2018-06-27T03:23:59.065Z,82.67
2018-06-27T03:24:59.065Z,82.67
2018-06-27T03:25:59.042Z,83.18
2018-06-27T03:26:59.030Z,82.98
2018-06-27T03:27:59.020Z,82.78
2018-06-27T03:28:59.009Z,82.78
2018-06-27T03:29:59.011Z,83.08
2018-06-27T03:30:58.985Z,82.57
2018-06-27T03:31:58.976Z,82.98
2018-06-27T03:32:58.967Z,82.81
2018-06-27T03:33:58.951Z,82.87
2018-06-27T03:34:58.954Z,82.57
2018-06-27T03:35:58.929Z,82.26
2018-06-27T03:36:58.923Z,81.86
2018-06-27T03:37:58.925Z,81.96
2018-06-27T03:38:58.898Z,81.86
2018-06-27T03:39:58.918Z,81.76
2018-06-27T03:40:58.927Z,81.96
2018-06-27T03:41:58.861Z,81.70
2018-06-27T03:42:58.857Z,81.25
2018-06-27T03:43:58.864Z,81.45
2018-06-27T03:44:58.855Z,81.21
2018-06-27T03:45:58.820Z,80.71
2018-06-27T03:46:58.808Z,79.04
2018-06-27T03:47:58.794Z,79.00
2018-06-27T03:48:58.795Z,77.14
2018-06-27T03:49:58.810Z,76.74
2018-06-27T03:50:58.763Z,75.99
2018-06-27T03:51:58.751Z,75.49
2018-06-27T03:52:58.739Z,75.35
2018-06-27T03:53:58.727Z,75.04
2018-06-27T03:54:58.733Z,74.20
2018-06-27T03:55:58.706Z,73.80
2018-06-27T03:56:58.697Z,72.21
2018-06-27T03:57:58.684Z,72.14
2018-06-27T03:58:58.678Z,70.09
2018-06-27T03:59:58.679Z,69.75
2018-06-27T04:00:58.653Z,68.81
2018-06-27T04:01:58.642Z,67.87
2018-06-27T04:02:58.636Z,67.07
2018-06-27T04:03:58.620Z,66.42
2018-06-27T04:04:58.622Z,65.59
2018-06-27T04:05:58.597Z,65.39
2018-06-27T04:06:58.595Z,64.65
2018-06-27T04:07:58.575Z,64.52
2018-06-27T04:08:58.566Z,62.91
2018-06-27T04:09:58.570Z,63.18
2018-06-27T04:10:58.542Z,62.38
2018-06-27T04:11:58.532Z,61.74
2018-06-27T04:12:58.607Z,61.41
2018-06-27T04:13:58.511Z,61.94
2018-06-27T04:14:58.512Z,61.51
2018-06-27T04:15:58.486Z,61.87
2018-06-27T04:16:58.483Z,62.68
2018-06-27T04:17:58.465Z,62.58
2018-06-27T04:18:58.455Z,61.21
2018-06-27T04:19:58.457Z,59.74
2018-06-27T04:20:58.434Z,61.04
2018-06-27T04:21:58.422Z,60.51
2018-06-27T04:22:58.412Z,60.18
2018-06-27T04:23:58.400Z,59.25
2018-06-27T04:24:58.405Z,57.68
2018-06-27T04:25:58.377Z,57.35
2018-06-27T04:26:58.366Z,56.80
2018-06-27T04:27:58.356Z,55.87
2018-06-27T04:28:58.347Z,55.87
2018-06-27T04:29:58.350Z,55.32
2018-06-27T04:30:58.322Z,55.80
2018-06-27T04:31:58.311Z,55.05
2018-06-27T04:32:58.301Z,54.22
2018-06-27T04:33:58.290Z,52.67
2018-06-27T04:34:58.292Z,51.77
2018-06-27T04:35:58.329Z,52.34
2018-06-27T04:36:58.257Z,51.77
2018-06-27T04:37:58.251Z,51.62
2018-06-27T04:38:58.238Z,50.49
2018-06-27T04:39:58.245Z,49.85
2018-06-27T04:40:58.260Z,49.45
2018-06-27T04:41:58.202Z,47.83
2018-06-27T04:42:58.191Z,48.01
2018-06-27T04:43:58.181Z,48.46
2018-06-27T04:44:58.189Z,50.22
2018-06-27T04:45:58.157Z,51.45
2018-06-27T04:46:58.146Z,50.00
2018-06-27T04:47:58.135Z,50.15
2018-06-27T04:48:58.126Z,48.91
2018-06-27T04:49:58.127Z,47.69
2018-06-27T04:50:58.103Z,46.57
2018-06-27T04:51:58.090Z,46.33
2018-06-27T04:52:58.099Z,46.38
2018-06-27T04:53:58.068Z,45.41
2018-06-27T04:54:58.143Z,44.49
2018-06-27T04:55:58.048Z,44.29
2018-06-27T04:56:58.037Z,44.29
2018-06-27T04:57:58.027Z,45.01
2018-06-27T04:58:58.013Z,45.19
2018-06-27T04:59:58.059Z,44.27
2018-06-27T05:00:57.992Z,44.70
2018-06-27T05:01:57.985Z,44.67
2018-06-27T05:02:57.969Z,43.74
2018-06-27T05:03:57.966Z,43.02
2018-06-27T05:04:57.966Z,42.60
2018-06-27T05:05:57.938Z,43.22
2018-06-27T05:06:57.926Z,43.32
2018-06-27T05:07:57.915Z,42.96
2018-06-27T05:08:57.905Z,45.17
2018-06-27T05:09:57.909Z,43.93
2018-06-27T05:10:57.883Z,43.24
2018-06-27T05:11:57.877Z,43.44
2018-06-27T05:12:57.865Z,43.14
2018-06-27T05:13:57.851Z,42.85
2018-06-27T05:14:57.857Z,44.87
2018-06-27T05:15:57.883Z,44.07
2018-06-27T05:16:57.816Z,44.13
2018-06-27T05:17:57.807Z,43.22
2018-06-27T05:18:57.795Z,43.22
2018-06-27T05:19:57.783Z,42.94
2018-06-27T05:20:57.789Z,43.93
2018-06-27T05:21:57.774Z,43.66
2018-06-27T05:22:57.750Z,43.14
2018-06-27T05:23:57.740Z,42.94
2018-06-27T05:24:57.729Z,44.37
2018-06-27T05:25:57.741Z,44.40
2018-06-27T05:26:57.708Z,44.55
2018-06-27T05:27:57.697Z,43.60
2018-06-27T05:28:57.685Z,42.25
2018-06-27T05:29:57.680Z,40.25
2018-06-27T05:30:57.668Z,40.11
2018-06-27T05:31:57.672Z,39.81
2018-06-27T05:32:57.643Z,40.88
2018-06-27T05:33:57.658Z,43.34
2018-06-27T05:34:57.621Z,43.46
2018-06-27T05:35:57.610Z,43.54
2018-06-27T05:36:57.600Z,41.39
2018-06-27T05:37:57.603Z,41.12
2018-06-27T05:38:57.578Z,39.09
2018-06-27T05:39:57.567Z,38.34
2018-06-27T05:40:57.558Z,37.22
2018-06-27T05:41:57.550Z,36.22
2018-06-27T05:42:57.553Z,37.14
2018-06-27T05:43:57.524Z,37.43
2018-06-27T05:44:57.519Z,36.72
2018-06-27T05:45:57.504Z,36.90
2018-06-27T05:46:57.492Z,37.34
2018-06-27T05:47:57.503Z,37.26
2018-06-27T05:48:57.470Z,39.30
2018-06-27T05:49:57.459Z,40.84
2018-06-27T05:50:57.449Z,40.72
2018-06-27T05:51:57.439Z,40.01
2018-06-27T05:52:57.443Z,39.09
2018-06-27T05:53:57.420Z,38.47
2018-06-27T05:54:57.406Z,37.66
2018-06-27T05:55:57.399Z,39.50
2018-06-27T05:56:57.393Z,39.79
2018-06-27T05:57:57.392Z,39.40
2018-06-27T05:58:57.369Z,38.89
2018-06-27T05:59:57.360Z,40.13
2018-06-27T06:00:57.356Z,40.19
2018-06-27T06:01:57.336Z,39.99
2018-06-27T06:02:57.337Z,39.17
2018-06-27T06:03:57.314Z,38.67
2018-06-27T06:04:57.301Z,38.56
2018-06-27T06:05:57.289Z,37.43
2018-06-27T06:06:57.280Z,37.55
2018-06-27T06:07:57.282Z,38.16
2018-06-27T06:08:57.256Z,37.95
2018-06-27T06:09:57.259Z,38.12
2018-06-27T06:10:57.240Z,36.82
2018-06-27T06:11:57.228Z,37.01
2018-06-27T06:12:57.235Z,36.00
2018-06-27T06:13:57.205Z,37.08
2018-06-27T06:14:57.194Z,36.22
2018-06-27T06:15:57.185Z,37.32
2018-06-27T06:16:57.175Z,36.92
2018-06-27T06:17:57.180Z,36.79
2018-06-27T06:18:57.157Z,35.66
2018-06-27T06:19:57.143Z,34.75
2018-06-27T06:20:57.137Z,35.13
2018-06-27T06:21:57.122Z,34.74
2018-06-27T06:22:57.130Z,34.83
2018-06-27T06:23:57.105Z,34.42
2018-06-27T06:24:57.092Z,34.36
2018-06-27T06:25:57.083Z,35.36
2018-06-27T06:26:57.075Z,35.52
2018-06-27T06:27:57.097Z,34.31
2018-06-27T06:28:57.063Z,34.41
2018-06-27T06:29:57.040Z,34.33
2018-06-27T06:30:57.031Z,34.42
2018-06-27T06:31:57.021Z,34.31
2018-06-27T06:32:57.011Z,34.85
2018-06-27T06:33:57.012Z,35.64
2018-06-27T06:34:56.987Z,36.75
2018-06-27T06:35:56.978Z,36.38
2018-06-27T06:36:56.971Z,36.51
2018-06-27T06:37:56.956Z,37.59
2018-06-27T06:38:56.954Z,36.82
2018-06-27T06:39:56.952Z,36.79
2018-06-27T06:40:56.925Z,37.15
2018-06-27T06:41:56.917Z,37.41
2018-06-27T06:42:57.180Z,36.46
2018-06-27T06:43:56.897Z,36.47
2018-06-27T06:44:56.898Z,35.77
2018-06-27T06:45:56.917Z,36.46
2018-06-27T06:46:56.877Z,35.41
2018-06-27T06:47:56.863Z,34.30
2018-06-27T06:48:56.843Z,33.56
2018-06-27T06:49:56.864Z,32.66
2018-06-27T06:50:56.821Z,31.48
2018-06-27T06:51:56.813Z,31.59
2018-06-27T06:52:56.802Z,31.98
2018-06-27T06:53:56.796Z,31.96
2018-06-27T06:54:56.798Z,33.38
2018-06-27T06:55:56.771Z,34.30
2018-06-27T06:56:56.763Z,33.10
2018-06-27T06:57:56.752Z,32.56
2018-06-27T06:58:56.741Z,33.17
2018-06-27T06:59:56.747Z,31.60
2018-06-27T07:00:56.722Z,32.58
2018-06-27T07:01:56.712Z,33.39
2018-06-27T07:02:56.704Z,33.59
2018-06-27T07:03:56.694Z,33.00
2018-06-27T07:04:56.742Z,33.50
2018-06-27T07:05:56.681Z,33.50
2018-06-27T07:06:56.661Z,33.48
2018-06-27T07:07:56.654Z,32.87
2018-06-27T07:08:56.641Z,32.76
2018-06-27T07:09:56.646Z,31.36
2018-06-27T07:10:56.626Z,31.54
2018-06-27T07:11:56.616Z,31.75
2018-06-27T07:12:56.601Z,32.58
2018-06-27T07:13:56.592Z,33.41
2018-06-27T07:14:56.604Z,37.41
2018-06-27T07:15:56.575Z,37.40
2018-06-27T07:16:56.635Z,36.75
2018-06-27T07:17:56.555Z,36.44
2018-06-27T07:18:56.547Z,35.54
2018-06-27T07:19:56.548Z,35.23
2018-06-27T07:20:56.523Z,33.51
2018-06-27T07:21:56.518Z,34.41
2018-06-27T07:22:56.506Z,33.33
2018-06-27T07:23:56.495Z,33.50
2018-06-27T07:24:56.511Z,33.12
2018-06-27T07:25:56.481Z,32.68
2018-06-27T07:26:56.472Z,31.36
2018-06-27T07:27:56.456Z,30.55
2018-06-27T07:28:56.451Z,31.77
2018-06-27T07:29:56.470Z,31.59
2018-06-27T07:30:56.428Z,32.58
2018-06-27T07:31:56.446Z,34.83
2018-06-27T07:32:56.408Z,34.31
2018-06-27T07:33:56.413Z,35.42
2018-06-27T07:34:56.418Z,34.51
2018-06-27T07:35:56.401Z,34.59
2018-06-27T07:36:56.370Z,32.78
2018-06-27T07:37:56.400Z,32.16
2018-06-27T07:38:56.350Z,31.78
2018-06-27T07:39:56.784Z,31.95
2018-06-27T07:40:56.340Z,30.13
2018-06-27T07:41:56.321Z,31.15
2018-06-27T07:42:56.313Z,32.66
2018-06-27T07:43:56.304Z,32.63
2018-06-27T07:44:56.308Z,32.37
2018-06-27T07:45:56.285Z,33.36
2018-06-27T07:46:56.277Z,32.29
2018-06-27T07:47:56.267Z,34.28
2018-06-27T07:48:56.270Z,32.95
2018-06-27T07:49:56.304Z,32.60
2018-06-27T07:50:56.236Z,33.15
2018-06-27T07:51:56.228Z,31.05
2018-06-27T07:52:56.236Z,33.67
2018-06-27T07:53:56.219Z,32.79
2018-06-27T07:54:56.212Z,33.65
2018-06-27T07:55:56.202Z,31.36
2018-06-27T07:56:56.182Z,32.55
2018-06-27T07:57:56.173Z,33.58
2018-06-27T07:58:56.163Z,33.34
2018-06-27T07:59:56.168Z,33.15
2018-06-27T08:00:56.145Z,31.75
2018-06-27T08:01:56.140Z,34.20
2018-06-27T08:02:56.130Z,35.52
2018-06-27T08:03:56.120Z,34.30
2018-06-27T08:04:56.122Z,33.18
2018-06-27T08:05:56.183Z,33.25
2018-06-27T08:06:56.089Z,32.46
2018-06-27T08:07:56.083Z,33.36
2018-06-27T08:08:56.072Z,32.45
2018-06-27T08:09:56.077Z,31.52
2018-06-27T08:10:56.054Z,30.42
2018-06-27T08:11:56.046Z,31.35
2018-06-27T08:12:56.044Z,31.60
2018-06-27T08:13:56.077Z,31.51
2018-06-27T08:14:56.061Z,30.68
2018-06-27T08:15:56.010Z,29.75
2018-06-27T08:16:56.000Z,29.10
2018-06-27T08:17:56.025Z,28.68
2018-06-27T08:18:55.983Z,28.45
2018-06-27T08:19:55.996Z,27.46
2018-06-27T08:20:55.967Z,29.78
2018-06-27T08:21:55.982Z,30.31
2018-06-27T08:22:55.947Z,30.65
2018-06-27T08:23:55.940Z,33.09
2018-06-27T08:24:55.928Z,34.16
2018-06-27T08:25:55.958Z,33.26
2018-06-27T08:26:55.919Z,32.97
2018-06-27T08:27:55.906Z,33.22
2018-06-27T08:28:55.897Z,32.73
2018-06-27T08:29:55.884Z,30.83
2018-06-27T08:30:55.889Z,29.33
2018-06-27T08:31:55.870Z,31.04
2018-06-27T08:32:55.863Z,31.46
2018-06-27T08:33:55.853Z,30.76
2018-06-27T08:34:55.857Z,30.45
2018-06-27T08:35:55.869Z,30.15
2018-06-27T08:36:55.827Z,30.24
2018-06-27T08:37:55.819Z,29.52
2018-06-27T08:38:55.814Z,29.03
2018-06-27T08:39:55.803Z,30.57
2018-06-27T08:40:55.795Z,31.36
2018-06-27T08:41:55.822Z,31.46
2018-06-27T08:42:55.775Z,33.18
2018-06-27T08:43:55.779Z,32.89
2018-06-27T08:44:55.757Z,30.83
2018-06-27T08:45:55.753Z,29.72
2018-06-27T08:46:55.783Z,28.74
2018-06-27T08:47:55.731Z,28.83
2018-06-27T08:48:55.721Z,28.89
2018-06-27T08:49:55.728Z,28.39
2018-06-27T08:50:55.701Z,27.78
2018-06-27T08:51:55.695Z,27.29
2018-06-27T08:52:55.699Z,27.57
2018-06-27T08:53:55.690Z,27.84
2018-06-27T08:54:55.668Z,27.67
2018-06-27T08:55:55.665Z,28.89
2018-06-27T08:56:55.653Z,30.15
2018-06-27T08:57:55.660Z,31.48
2018-06-27T08:58:55.700Z,29.99
2018-06-27T08:59:55.632Z,29.99
2018-06-27T09:00:55.619Z,29.11
2018-06-27T09:01:55.611Z,30.39
2018-06-27T09:02:55.618Z,30.90
2018-06-27T09:03:55.593Z,32.26
2018-06-27T09:04:55.588Z,30.57
2018-06-27T09:05:55.578Z,29.21
2018-06-27T09:06:55.573Z,29.08
2018-06-27T09:07:55.577Z,28.29
2018-06-27T09:08:55.555Z,28.88
2018-06-27T09:09:55.550Z,28.30
2018-06-27T09:10:55.546Z,29.26
2018-06-27T09:11:55.536Z,28.26
2018-06-27T09:12:55.541Z,28.88
2018-06-27T09:13:55.528Z,28.68
2018-06-27T09:14:55.510Z,28.49
2018-06-27T09:15:55.499Z,28.97
2018-06-27T09:16:55.492Z,27.92
2018-06-27T09:17:55.508Z,28.30
2018-06-27T09:18:55.476Z,28.28
2018-06-27T09:19:55.474Z,29.21
2018-06-27T09:20:55.471Z,29.53
2018-06-27T09:21:55.454Z,29.91
2018-06-27T09:22:55.469Z,30.41
2018-06-27T09:23:55.433Z,29.63
2018-06-27T09:24:55.424Z,29.42
2018-06-27T09:25:55.418Z,29.76
2018-06-27T09:26:55.422Z,29.08
2018-06-27T09:27:55.431Z,28.78
2018-06-27T09:28:55.394Z,28.64
2018-06-27T09:29:55.385Z,28.85
2018-06-27T09:30:55.378Z,28.75
2018-06-27T09:31:55.372Z,28.83
2018-06-27T09:32:55.385Z,29.25
2018-06-27T09:33:55.361Z,30.05
2018-06-27T09:34:55.371Z,29.26
2018-06-27T09:35:55.344Z,28.75
2018-06-27T09:36:55.331Z,29.28
2018-06-27T09:37:55.338Z,28.66
2018-06-27T09:38:55.314Z,29.52
2018-06-27T09:39:55.313Z,30.17
2018-06-27T09:40:55.312Z,32.06
2018-06-27T09:41:55.368Z,31.25
2018-06-27T09:42:55.305Z,29.85
2018-06-27T09:43:55.277Z,29.06
2018-06-27T09:44:55.268Z,29.97
2018-06-27T09:45:55.264Z,30.41
2018-06-27T09:46:55.295Z,30.26
2018-06-27T09:47:55.248Z,29.06
2018-06-27T09:48:55.257Z,27.69
2018-06-27T09:49:55.235Z,27.69
2018-06-27T09:50:55.231Z,27.92
2018-06-27T09:51:55.220Z,27.33
2018-06-27T09:52:55.295Z,28.02
2018-06-27T09:53:55.228Z,27.61
2018-06-27T09:54:55.194Z,27.43
2018-06-27T09:55:55.191Z,28.80
2018-06-27T09:56:55.224Z,30.51
2018-06-27T09:57:55.174Z,29.25
2018-06-27T09:58:55.164Z,30.11
2018-06-27T09:59:55.259Z,29.18
2018-06-27T10:00:55.152Z,28.08
2018-06-27T10:01:55.141Z,27.40
2018-06-27T10:02:55.142Z,27.29
2018-06-27T10:03:55.193Z,27.28
2018-06-27T10:04:55.145Z,26.46
2018-06-27T10:05:55.110Z,26.25
2018-06-27T10:06:55.118Z,26.39
2018-06-27T10:07:55.113Z,28.08
2018-06-27T10:08:55.088Z,28.49
2018-06-27T10:09:55.109Z,28.39
2018-06-27T10:10:55.142Z,28.09
2018-06-27T10:11:55.066Z,27.70
2018-06-27T10:12:55.097Z,29.49
2018-06-27T10:13:55.059Z,29.14
2018-06-27T10:14:55.062Z,30.21
2018-06-27T10:15:55.044Z,29.61
2018-06-27T10:16:55.056Z,29.30
2018-06-27T10:17:55.024Z,30.39
2018-06-27T10:18:55.013Z,29.22
2018-06-27T10:19:55.018Z,29.02
2018-06-27T10:20:54.995Z,27.78
2018-06-27T10:21:54.990Z,27.66
2018-06-27T10:22:54.984Z,25.93
2018-06-27T10:23:54.995Z,26.21
2018-06-27T10:24:54.993Z,26.20
2018-06-27T10:25:54.958Z,25.79
2018-06-27T10:26:54.950Z,25.98
2018-06-27T10:31:21.289Z,27.32
2018-06-27T10:32:21.284Z,27.50
2018-06-27T10:33:21.281Z,26.32
2018-06-27T10:34:21.271Z,25.71
2018-06-27T10:35:21.275Z,26.50
2018-06-27T10:36:21.267Z,26.51
2018-06-27T10:37:21.249Z,27.90
2018-06-27T10:38:21.241Z,26.71
2018-06-27T10:39:21.233Z,28.05
2018-06-27T10:40:21.229Z,26.56
2018-06-27T10:41:21.232Z,25.37
2018-06-27T10:42:21.211Z,25.77
2018-06-27T10:43:21.218Z,26.46
2018-06-27T10:44:21.199Z,26.09
2018-06-27T10:45:21.193Z,26.68
2018-06-27T10:46:21.198Z,26.49
2018-06-27T10:47:21.178Z,25.99
2018-06-27T10:48:21.169Z,26.09
2018-06-27T10:49:21.167Z,25.12
2018-06-27T10:50:21.156Z,26.86
2018-06-27T10:51:21.183Z,27.31
2018-06-27T10:52:21.140Z,28.69
2018-06-27T10:53:21.132Z,29.08
2018-06-27T10:54:21.126Z,28.33
2018-06-27T10:55:21.122Z,29.96
2018-06-27T10:56:21.115Z,30.79
2018-06-27T10:57:21.120Z,31.07
2018-06-27T10:58:21.095Z,31.25
2018-06-27T10:59:21.087Z,30.74
2018-06-27T11:00:21.081Z,32.53
2018-06-27T11:01:21.076Z,32.95
2018-06-27T11:02:21.084Z,32.48
2018-06-27T11:03:21.062Z,32.78
2018-06-27T11:04:21.050Z,33.79
2018-06-27T11:05:21.101Z,35.33
2018-06-27T11:06:21.037Z,36.05
2018-06-27T11:07:21.025Z,36.70
2018-06-27T11:08:21.034Z,36.30
2018-06-27T11:09:21.014Z,34.61
2018-06-27T11:10:21.002Z,34.31
2018-06-27T11:11:20.994Z,34.44
2018-06-27T11:12:20.986Z,34.92
2018-06-27T11:13:20.995Z,35.02
2018-06-27T11:14:20.973Z,35.31
2018-06-27T11:15:20.962Z,35.19
2018-06-27T11:16:20.957Z,35.33
2018-06-27T11:17:20.958Z,36.22
2018-06-27T11:18:20.955Z,35.26
2018-06-27T11:19:20.937Z,36.46
2018-06-27T11:20:20.940Z,36.46
2018-06-27T11:21:20.916Z,36.55
2018-06-27T11:22:20.917Z,36.07
2018-06-27T11:23:20.913Z,36.55
2018-06-27T11:24:20.895Z,36.46
2018-06-27T11:25:20.885Z,36.46
2018-06-27T11:26:20.879Z,36.74
2018-06-27T11:27:20.876Z,36.34
2018-06-27T11:28:20.863Z,36.93
2018-06-27T11:29:20.870Z,36.85
2018-06-27T11:30:20.856Z,36.46
2018-06-27T11:31:20.858Z,36.75
2018-06-27T11:32:20.833Z,37.15
2018-06-27T11:33:20.837Z,37.38
2018-06-27T11:34:20.820Z,38.48
2018-06-27T11:35:20.808Z,37.89
2018-06-27T11:36:20.799Z,38.56
2018-06-27T11:37:20.792Z,36.99
2018-06-27T11:38:20.804Z,37.48
2018-06-27T11:39:20.779Z,37.99
2018-06-27T11:40:20.766Z,39.48
2018-06-27T11:41:20.762Z,40.09
2018-06-27T11:42:20.767Z,38.79
2018-06-27T11:43:20.773Z,39.18
2018-06-27T11:44:20.736Z,40.17
2018-06-27T11:45:20.727Z,37.20
2018-06-27T11:46:20.716Z,38.01
2018-06-27T11:47:20.707Z,37.61
2018-06-27T11:48:20.706Z,38.79
2018-06-27T11:49:20.701Z,38.97
2018-06-27T11:50:20.679Z,38.38
2018-06-27T11:51:20.669Z,36.90
2018-06-27T11:52:20.660Z,36.61
2018-06-27T11:53:20.714Z,37.40
2018-06-27T11:54:20.664Z,37.49
2018-06-27T11:55:20.642Z,36.80
2018-06-27T11:56:20.629Z,38.40
2018-06-27T11:57:20.642Z,39.32
2018-06-27T11:58:20.612Z,39.12
2018-06-27T11:59:20.598Z,39.54
2018-06-27T12:00:20.596Z,39.94
2018-06-27T12:01:20.576Z,39.32
2018-06-27T12:02:20.570Z,40.01
2018-06-27T12:03:20.555Z,39.40
2018-06-27T12:04:20.571Z,37.45
2018-06-27T12:05:20.551Z,38.02
2018-06-27T12:06:20.526Z,37.63
2018-06-27T12:07:20.516Z,35.86
2018-06-27T12:08:20.512Z,36.76
2018-06-27T12:09:20.502Z,37.26
2018-06-27T12:10:20.502Z,37.05
2018-06-27T12:11:20.476Z,37.66
2018-06-27T12:12:20.466Z,36.30
2018-06-27T12:13:20.457Z,37.80
2018-06-27T12:14:20.453Z,37.30
2018-06-27T12:15:20.449Z,36.99
2018-06-27T12:16:20.428Z,37.17
2018-06-27T12:17:20.416Z,37.17
2018-06-27T12:18:20.406Z,36.29
2018-06-27T12:19:20.398Z,35.40
2018-06-27T12:20:20.400Z,35.68
2018-06-27T12:21:20.375Z,35.48
2018-06-27T12:22:20.368Z,37.63
2018-06-27T12:23:20.369Z,37.61
2018-06-27T12:24:20.348Z,37.32
2018-06-27T12:25:20.359Z,37.63
2018-06-27T12:26:20.345Z,37.14
2018-06-27T12:27:20.318Z,37.22
2018-06-27T12:28:20.308Z,37.43
2018-06-27T12:29:20.298Z,37.57
2018-06-27T12:30:20.312Z,38.18
2018-06-27T12:31:20.277Z,38.98
2018-06-27T12:32:20.275Z,39.48
2018-06-27T12:33:20.257Z,38.67
2018-06-27T12:34:20.248Z,39.48
2018-06-27T12:35:20.274Z,38.39
2018-06-27T12:36:20.226Z,38.10
2018-06-27T12:37:20.245Z,37.82
2018-06-27T12:38:20.212Z,37.32
2018-06-27T12:39:20.193Z,36.61
2018-06-27T12:40:20.184Z,36.61
2018-06-27T12:41:20.184Z,36.82
2018-06-27T12:42:20.163Z,36.61
2018-06-27T12:43:20.158Z,36.80
2018-06-27T12:44:20.176Z,36.70
2018-06-27T12:45:20.131Z,35.81
2018-06-27T12:46:20.138Z,36.42
2018-06-27T12:47:20.112Z,36.02
2018-06-27T12:48:20.103Z,36.21
2018-06-27T12:49:20.092Z,35.41
2018-06-27T12:50:20.151Z,35.52
2018-06-27T12:51:20.070Z,34.43
2018-06-27T12:52:20.076Z,35.69
2018-06-27T12:53:20.053Z,34.49
2018-06-27T12:54:20.040Z,34.59
2018-06-27T12:55:20.031Z,35.58
2018-06-27T12:56:20.020Z,35.18
2018-06-27T12:57:20.025Z,34.89
2018-06-27T12:58:20.003Z,34.77